sensor_id;sensor_type;location;lat;lon;timestamp;pressure;altitude;pressure_sealevel;temperature;humidity
77027;BME280;65956;52.986;17.490;2023-05-15T00:00:55;100001.51;;;15.10;51.41
77027;BME280;65956;52.986;17.490;2023-05-15T00:03:28;99998.11;;;15.17;51.66
77027;BME280;65956;52.986;17.490;2023-05-15T00:05:54;99996.81;;;15.16;51.85
77027;BME280;65956;52.986;17.490;2023-05-15T00:08:21;99989.33;;;15.11;52.00
77027;BME280;65956;52.986;17.490;2023-05-15T00:10:47;99987.81;;;15.06;51.95
77027;BME280;65956;52.986;17.490;2023-05-15T00:13:13;99985.11;;;15.04;51.99
77027;BME280;65956;52.986;17.490;2023-05-15T00:15:39;99981.34;;;15.02;51.73
77027;BME280;65956;52.986;17.490;2023-05-15T00:18:05;99977.59;;;15.02;51.80
77027;BME280;65956;52.986;17.490;2023-05-15T00:20:31;99979.02;;;15.03;51.31
77027;BME280;65956;52.986;17.490;2023-05-15T00:22:57;99978.46;;;15.04;51.35
77027;BME280;65956;52.986;17.490;2023-05-15T00:25:23;99972.61;;;15.05;51.50
77027;BME280;65956;52.986;17.490;2023-05-15T00:27:49;99967.95;;;15.03;51.44
77027;BME280;65956;52.986;17.490;2023-05-15T00:30:15;99965.89;;;15.00;51.54
77027;BME280;65956;52.986;17.490;2023-05-15T00:32:41;99960.89;;;14.93;51.89
77027;BME280;65956;52.986;17.490;2023-05-15T00:35:07;99957.40;;;14.85;52.09
77027;BME280;65956;52.986;17.490;2023-05-15T00:37:33;99951.69;;;14.76;52.56
77027;BME280;65956;52.986;17.490;2023-05-15T00:39:59;99948.61;;;14.67;52.88
77027;BME280;65956;52.986;17.490;2023-05-15T00:42:26;99945.55;;;14.55;53.19
77027;BME280;65956;52.986;17.490;2023-05-15T00:44:53;99946.33;;;14.46;53.54
77027;BME280;65956;52.986;17.490;2023-05-15T00:47:21;99948.03;;;14.38;53.61
77027;BME280;65956;52.986;17.490;2023-05-15T00:49:48;99943.23;;;14.34;53.87
77027;BME280;65956;52.986;17.490;2023-05-15T00:52:19;99941.40;;;14.29;53.80
77027;BME280;65956;52.986;17.490;2023-05-15T00:54:45;99938.69;;;14.27;53.94
77027;BME280;65956;52.986;17.490;2023-05-15T00:57:11;99938.61;;;14.25;53.97
77027;BME280;65956;52.986;17.490;2023-05-15T00:59:38;99938.20;;;14.24;54.14
77027;BME280;65956;52.986;17.490;2023-05-15T01:02:05;99933.97;;;14.22;54.16
77027;BME280;65956;52.986;17.490;2023-05-15T01:04:31;99929.98;;;14.18;54.35
77027;BME280;65956;52.986;17.490;2023-05-15T01:06:57;99930.23;;;14.15;54.45
77027;BME280;65956;52.986;17.490;2023-05-15T01:09:24;99926.73;;;14.12;54.58
77027;BME280;65956;52.986;17.490;2023-05-15T01:11:53;99923.21;;;14.09;54.77
77027;BME280;65956;52.986;17.490;2023-05-15T01:14:19;99924.74;;;14.07;54.88
77027;BME280;65956;52.986;17.490;2023-05-15T01:16:45;99919.79;;;14.05;54.90
77027;BME280;65956;52.986;17.490;2023-05-15T01:19:11;99920.11;;;14.04;54.75
77027;BME280;65956;52.986;17.490;2023-05-15T01:27:38;99921.55;;;14.02;54.98
77027;BME280;65956;52.986;17.490;2023-05-15T01:30:29;99927.95;;;14.01;55.12
77027;BME280;65956;52.986;17.490;2023-05-15T01:33:27;99929.17;;;13.98;55.40
77027;BME280;65956;52.986;17.490;2023-05-15T01:36:18;99931.04;;;13.91;55.95
77027;BME280;65956;52.986;17.490;2023-05-15T01:38:49;99932.89;;;13.83;56.67
77027;BME280;65956;52.986;17.490;2023-05-15T01:41:25;99932.02;;;13.75;56.83
77027;BME280;65956;52.986;17.490;2023-05-15T01:43:59;99931.55;;;13.70;57.32
77027;BME280;65956;52.986;17.490;2023-05-15T01:46:30;99935.17;;;13.62;57.87
77027;BME280;65956;52.986;17.490;2023-05-15T01:48:57;99935.41;;;13.56;57.97
77027;BME280;65956;52.986;17.490;2023-05-15T01:51:25;99928.63;;;13.52;58.12
77027;BME280;65956;52.986;17.490;2023-05-15T01:53:52;99923.66;;;13.50;58.02
77027;BME280;65956;52.986;17.490;2023-05-15T01:56:21;99936.79;;;13.48;58.22
77027;BME280;65956;52.986;17.490;2023-05-15T01:58:49;99939.98;;;13.46;58.47
77027;BME280;65956;52.986;17.490;2023-05-15T02:01:17;99943.02;;;13.43;59.39
77027;BME280;65956;52.986;17.490;2023-05-15T02:03:44;99940.14;;;13.39;59.71
77027;BME280;65956;52.986;17.490;2023-05-15T02:06:12;99941.35;;;13.36;59.48
77027;BME280;65956;52.986;17.490;2023-05-15T02:08:40;99937.36;;;13.34;59.74
77027;BME280;65956;52.986;17.490;2023-05-15T02:11:08;99930.80;;;13.31;59.58
77027;BME280;65956;52.986;17.490;2023-05-15T02:13:35;99927.60;;;13.29;59.63
77027;BME280;65956;52.986;17.490;2023-05-15T02:16:02;99919.54;;;13.30;59.15
77027;BME280;65956;52.986;17.490;2023-05-15T02:18:28;99906.81;;;13.33;58.78
77027;BME280;65956;52.986;17.490;2023-05-15T02:20:56;99904.01;;;13.36;58.62
77027;BME280;65956;52.986;17.490;2023-05-15T02:23:23;99899.45;;;13.38;58.81
77027;BME280;65956;52.986;17.490;2023-05-15T02:28:48;99880.80;;;13.42;58.51
77027;BME280;65956;52.986;17.490;2023-05-15T02:31:25;99871.46;;;13.43;58.51
77027;BME280;65956;52.986;17.490;2023-05-15T02:34:17;99863.55;;;13.42;58.18
77027;BME280;65956;52.986;17.490;2023-05-15T02:36:48;99862.02;;;13.45;58.03
77027;BME280;65956;52.986;17.490;2023-05-15T02:39:17;99855.86;;;13.48;58.10
77027;BME280;65956;52.986;17.490;2023-05-15T02:41:46;99850.09;;;13.50;58.10
77027;BME280;65956;52.986;17.490;2023-05-15T02:44:16;99847.77;;;13.52;58.34
77027;BME280;65956;52.986;17.490;2023-05-15T02:46:43;99847.84;;;13.54;58.52
77027;BME280;65956;52.986;17.490;2023-05-15T02:49:10;99839.92;;;13.55;58.71
77027;BME280;65956;52.986;17.490;2023-05-15T02:51:39;99838.09;;;13.56;58.36
77027;BME280;65956;52.986;17.490;2023-05-15T02:54:05;99824.81;;;13.52;58.79
77027;BME280;65956;52.986;17.490;2023-05-15T02:56:33;99824.98;;;13.48;58.42
77027;BME280;65956;52.986;17.490;2023-05-15T02:58:59;99842.66;;;13.50;58.35
77027;BME280;65956;52.986;17.490;2023-05-15T03:01:26;99856.88;;;13.53;58.22
77027;BME280;65956;52.986;17.490;2023-05-15T03:03:52;99842.41;;;13.52;58.96
77027;BME280;65956;52.986;17.490;2023-05-15T03:06:18;99838.09;;;13.49;59.51
77027;BME280;65956;52.986;17.490;2023-05-15T03:08:44;99824.19;;;13.46;59.38
77027;BME280;65956;52.986;17.490;2023-05-15T03:11:10;99821.79;;;13.44;59.29
77027;BME280;65956;52.986;17.490;2023-05-15T03:13:36;99812.45;;;13.40;59.28
77027;BME280;65956;52.986;17.490;2023-05-15T03:16:02;99801.25;;;13.37;59.36
77027;BME280;65956;52.986;17.490;2023-05-15T03:18:28;99795.66;;;13.35;59.36
77027;BME280;65956;52.986;17.490;2023-05-15T03:20:54;99788.95;;;13.33;59.47
77027;BME280;65956;52.986;17.490;2023-05-15T03:23:19;99770.10;;;13.27;59.97
77027;BME280;65956;52.986;17.490;2023-05-15T03:25:45;99785.52;;;13.24;60.13
77027;BME280;65956;52.986;17.490;2023-05-15T03:28:12;99789.85;;;13.25;59.74
77027;BME280;65956;52.986;17.490;2023-05-15T03:30:38;99782.88;;;13.34;58.86
77027;BME280;65956;52.986;17.490;2023-05-15T03:33:04;99773.02;;;13.43;58.57
77027;BME280;65956;52.986;17.490;2023-05-15T03:35:31;99762.99;;;13.50;58.41
77027;BME280;65956;52.986;17.490;2023-05-15T03:37:57;99751.44;;;13.60;57.94
77027;BME280;65956;52.986;17.490;2023-05-15T03:40:23;99745.08;;;13.68;57.45
77027;BME280;65956;52.986;17.490;2023-05-15T03:42:49;99771.84;;;13.76;57.27
77027;BME280;65956;52.986;17.490;2023-05-15T03:45:19;99776.70;;;13.82;57.27
77027;BME280;65956;52.986;17.490;2023-05-15T03:47:46;99770.84;;;13.86;57.13
77027;BME280;65956;52.986;17.490;2023-05-15T03:50:13;99759.93;;;13.89;57.11
77027;BME280;65956;52.986;17.490;2023-05-15T03:52:39;99757.85;;;13.90;56.84
77027;BME280;65956;52.986;17.490;2023-05-15T03:55:05;99745.67;;;13.94;56.46
77027;BME280;65956;52.986;17.490;2023-05-15T03:57:31;99736.20;;;13.99;56.35
77027;BME280;65956;52.986;17.490;2023-05-15T03:59:58;99747.27;;;14.06;56.76
77027;BME280;65956;52.986;17.490;2023-05-15T04:02:24;99763.11;;;14.08;56.91
77027;BME280;65956;52.986;17.490;2023-05-15T04:04:50;99769.42;;;14.10;56.73
77027;BME280;65956;52.986;17.490;2023-05-15T04:07:17;99764.13;;;14.12;57.40
77027;BME280;65956;52.986;17.490;2023-05-15T04:09:43;99779.67;;;14.10;58.08
77027;BME280;65956;52.986;17.490;2023-05-15T04:12:09;99743.27;;;14.05;58.31
77027;BME280;65956;52.986;17.490;2023-05-15T04:14:35;99737.13;;;13.92;58.50
77027;BME280;65956;52.986;17.490;2023-05-15T04:17:01;99727.95;;;13.83;58.34
77027;BME280;65956;52.986;17.490;2023-05-15T04:19:27;99719.49;;;13.82;58.18
77027;BME280;65956;52.986;17.490;2023-05-15T04:21:53;99769.80;;;13.83;59.07
77027;BME280;65956;52.986;17.490;2023-05-15T04:24:18;99764.55;;;13.80;60.08
77027;BME280;65956;52.986;17.490;2023-05-15T04:26:45;99774.73;;;13.76;60.34
77027;BME280;65956;52.986;17.490;2023-05-15T04:29:10;99756.74;;;13.72;60.66
77027;BME280;65956;52.986;17.490;2023-05-15T04:31:36;99765.41;;;13.69;60.96
77027;BME280;65956;52.986;17.490;2023-05-15T04:34:03;99776.14;;;13.64;61.37
77027;BME280;65956;52.986;17.490;2023-05-15T04:36:30;99733.60;;;13.60;61.42
77027;BME280;65956;52.986;17.490;2023-05-15T04:38:56;99722.20;;;13.50;61.83
77027;BME280;65956;52.986;17.490;2023-05-15T04:41:22;99760.12;;;13.46;62.36
77027;BME280;65956;52.986;17.490;2023-05-15T04:43:48;99739.17;;;13.46;61.45
77027;BME280;65956;52.986;17.490;2023-05-15T04:46:14;99740.29;;;13.48;61.23
77027;BME280;65956;52.986;17.490;2023-05-15T04:48:40;99745.80;;;13.50;61.46
77027;BME280;65956;52.986;17.490;2023-05-15T04:51:06;99757.39;;;13.53;62.17
77027;BME280;65956;52.986;17.490;2023-05-15T04:53:32;99747.23;;;13.54;62.48
77027;BME280;65956;52.986;17.490;2023-05-15T04:55:58;99751.70;;;13.56;63.09
77027;BME280;65956;52.986;17.490;2023-05-15T04:58:24;99737.13;;;13.56;63.50
77027;BME280;65956;52.986;17.490;2023-05-15T05:00:50;99733.23;;;13.57;63.87
77027;BME280;65956;52.986;17.490;2023-05-15T05:03:16;99732.52;;;13.56;64.25
77027;BME280;65956;52.986;17.490;2023-05-15T05:05:42;99717.49;;;13.51;64.08
77027;BME280;65956;52.986;17.490;2023-05-15T05:08:08;99702.31;;;13.44;64.05
77027;BME280;65956;52.986;17.490;2023-05-15T05:10:34;99696.90;;;13.40;63.33
77027;BME280;65956;52.986;17.490;2023-05-15T05:13:00;99704.33;;;13.41;63.08
77027;BME280;65956;52.986;17.490;2023-05-15T05:15:26;99723.83;;;13.44;63.44
77027;BME280;65956;52.986;17.490;2023-05-15T05:17:52;99725.90;;;13.46;63.97
77027;BME280;65956;52.986;17.490;2023-05-15T05:20:18;99745.58;;;13.44;65.09
77027;BME280;65956;52.986;17.490;2023-05-15T05:22:43;99729.36;;;13.41;65.36
77027;BME280;65956;52.986;17.490;2023-05-15T05:25:09;99729.03;;;13.40;65.66
77027;BME280;65956;52.986;17.490;2023-05-15T05:27:35;99718.66;;;13.38;65.61
77027;BME280;65956;52.986;17.490;2023-05-15T05:30:02;99720.09;;;13.40;65.96
77027;BME280;65956;52.986;17.490;2023-05-15T05:32:28;99721.61;;;13.39;66.16
77027;BME280;65956;52.986;17.490;2023-05-15T05:34:54;99714.65;;;13.40;66.24
77027;BME280;65956;52.986;17.490;2023-05-15T05:37:20;99710.17;;;13.43;66.15
77027;BME280;65956;52.986;17.490;2023-05-15T05:39:46;99711.52;;;13.45;66.19
77027;BME280;65956;52.986;17.490;2023-05-15T05:42:12;99707.99;;;13.48;66.48
77027;BME280;65956;52.986;17.490;2023-05-15T05:44:38;99700.77;;;13.51;66.44
77027;BME280;65956;52.986;17.490;2023-05-15T05:47:04;99713.16;;;13.54;66.54
77027;BME280;65956;52.986;17.490;2023-05-15T05:49:30;99729.37;;;13.57;67.16
77027;BME280;65956;52.986;17.490;2023-05-15T05:51:56;99714.90;;;13.55;67.25
77027;BME280;65956;52.986;17.490;2023-05-15T05:54:22;99711.85;;;13.58;66.93
77027;BME280;65956;52.986;17.490;2023-05-15T05:56:47;99711.58;;;13.65;66.90
77027;BME280;65956;52.986;17.490;2023-05-15T05:59:14;99705.06;;;13.71;67.21
77027;BME280;65956;52.986;17.490;2023-05-15T06:01:40;99705.04;;;13.76;67.13
77027;BME280;65956;52.986;17.490;2023-05-15T06:04:07;99713.44;;;13.76;67.32
77027;BME280;65956;52.986;17.490;2023-05-15T06:06:33;99710.89;;;13.75;67.21
77027;BME280;65956;52.986;17.490;2023-05-15T06:08:59;99706.73;;;13.73;67.50
77027;BME280;65956;52.986;17.490;2023-05-15T06:11:25;99705.78;;;13.72;67.48
77027;BME280;65956;52.986;17.490;2023-05-15T06:13:51;99705.54;;;13.73;67.57
77027;BME280;65956;52.986;17.490;2023-05-15T06:16:17;99698.81;;;13.73;67.78
77027;BME280;65956;52.986;17.490;2023-05-15T06:18:43;99708.18;;;13.72;67.82
77027;BME280;65956;52.986;17.490;2023-05-15T06:21:09;99711.80;;;13.69;68.16
77027;BME280;65956;52.986;17.490;2023-05-15T06:23:35;99712.78;;;13.64;68.68
77027;BME280;65956;52.986;17.490;2023-05-15T06:26:02;99710.80;;;13.58;69.49
77027;BME280;65956;52.986;17.490;2023-05-15T06:28:29;99704.59;;;13.54;69.44
77027;BME280;65956;52.986;17.490;2023-05-15T06:30:55;99711.17;;;13.50;69.75
77027;BME280;65956;52.986;17.490;2023-05-15T06:33:21;99702.15;;;13.45;70.11
77027;BME280;65956;52.986;17.490;2023-05-15T06:35:47;99699.23;;;13.39;70.39
77027;BME280;65956;52.986;17.490;2023-05-15T06:38:13;99700.61;;;13.33;70.81
77027;BME280;65956;52.986;17.490;2023-05-15T06:40:39;99699.90;;;13.30;71.02
77027;BME280;65956;52.986;17.490;2023-05-15T06:43:05;99694.22;;;13.28;71.34
77027;BME280;65956;52.986;17.490;2023-05-15T06:45:31;99691.59;;;13.27;71.66
77027;BME280;65956;52.986;17.490;2023-05-15T06:47:57;99689.91;;;13.26;71.50
77027;BME280;65956;52.986;17.490;2023-05-15T06:50:23;99689.77;;;13.26;72.16
77027;BME280;65956;52.986;17.490;2023-05-15T06:52:48;99686.25;;;13.25;71.94
77027;BME280;65956;52.986;17.490;2023-05-15T06:55:14;99681.45;;;13.25;72.33
77027;BME280;65956;52.986;17.490;2023-05-15T06:57:40;99678.01;;;13.23;72.72
77027;BME280;65956;52.986;17.490;2023-05-15T07:00:07;99680.17;;;13.25;72.52
77027;BME280;65956;52.986;17.490;2023-05-15T07:02:33;99671.13;;;13.28;72.60
77027;BME280;65956;52.986;17.490;2023-05-15T07:04:59;99666.66;;;13.30;72.67
77027;BME280;65956;52.986;17.490;2023-05-15T07:07:25;99659.99;;;13.32;72.76
77027;BME280;65956;52.986;17.490;2023-05-15T07:09:50;99650.06;;;13.36;72.55
77027;BME280;65956;52.986;17.490;2023-05-15T07:12:16;99651.50;;;13.36;72.76
77027;BME280;65956;52.986;17.490;2023-05-15T07:14:42;99652.05;;;13.37;72.50
77027;BME280;65956;52.986;17.490;2023-05-15T07:17:08;99653.34;;;13.34;72.94
77027;BME280;65956;52.986;17.490;2023-05-15T07:19:34;99644.80;;;13.32;73.50
77027;BME280;65956;52.986;17.490;2023-05-15T07:22:00;99637.45;;;13.32;73.14
77027;BME280;65956;52.986;17.490;2023-05-15T07:24:26;99633.77;;;13.32;73.31
77027;BME280;65956;52.986;17.490;2023-05-15T07:26:52;99631.39;;;13.29;73.78
77027;BME280;65956;52.986;17.490;2023-05-15T07:29:20;99626.10;;;13.31;73.90
77027;BME280;65956;52.986;17.490;2023-05-15T07:31:46;99626.02;;;13.33;74.09
77027;BME280;65956;52.986;17.490;2023-05-15T07:34:12;99623.43;;;13.37;74.91
77027;BME280;65956;52.986;17.490;2023-05-15T07:36:38;99623.09;;;13.40;75.39
77027;BME280;65956;52.986;17.490;2023-05-15T07:39:04;99618.09;;;13.47;75.04
77027;BME280;65956;52.986;17.490;2023-05-15T07:41:30;99615.79;;;13.59;75.30
77027;BME280;65956;52.986;17.490;2023-05-15T07:43:58;99612.52;;;13.68;74.98
77027;BME280;65956;52.986;17.490;2023-05-15T07:46:24;99608.88;;;13.75;74.63
77027;BME280;65956;52.986;17.490;2023-05-15T07:48:50;99608.36;;;13.81;74.63
77027;BME280;65956;52.986;17.490;2023-05-15T07:51:16;99603.05;;;13.84;74.71
77027;BME280;65956;52.986;17.490;2023-05-15T07:53:42;99601.98;;;13.90;74.46
77027;BME280;65956;52.986;17.490;2023-05-15T07:56:08;99598.73;;;13.95;74.58
77027;BME280;65956;52.986;17.490;2023-05-15T07:58:34;99591.57;;;13.98;74.39
77027;BME280;65956;52.986;17.490;2023-05-15T08:01:03;99586.48;;;14.02;74.53
77027;BME280;65956;52.986;17.490;2023-05-15T08:03:29;99583.46;;;14.01;74.62
77027;BME280;65956;52.986;17.490;2023-05-15T08:05:55;99575.23;;;14.01;74.80
77027;BME280;65956;52.986;17.490;2023-05-15T08:08:21;99574.41;;;14.03;74.53
77027;BME280;65956;52.986;17.490;2023-05-15T08:10:47;99568.59;;;14.09;74.86
77027;BME280;65956;52.986;17.490;2023-05-15T08:13:13;99567.68;;;14.20;74.80
77027;BME280;65956;52.986;17.490;2023-05-15T08:15:39;99559.52;;;14.29;74.74
77027;BME280;65956;52.986;17.490;2023-05-15T08:18:09;99559.04;;;14.38;74.40
77027;BME280;65956;52.986;17.490;2023-05-15T08:20:38;99555.25;;;14.48;74.44
77027;BME280;65956;52.986;17.490;2023-05-15T08:23:04;99548.80;;;14.61;73.78
77027;BME280;65956;52.986;17.490;2023-05-15T08:25:30;99544.52;;;14.77;73.18
77027;BME280;65956;52.986;17.490;2023-05-15T08:27:56;99537.66;;;14.86;72.85
77027;BME280;65956;52.986;17.490;2023-05-15T08:30:22;99532.73;;;14.95;73.19
77027;BME280;65956;52.986;17.490;2023-05-15T08:32:48;99531.58;;;15.04;72.81
77027;BME280;65956;52.986;17.490;2023-05-15T08:35:14;99533.50;;;15.15;72.81
77027;BME280;65956;52.986;17.490;2023-05-15T08:37:40;99525.94;;;15.28;72.93
77027;BME280;65956;52.986;17.490;2023-05-15T08:40:07;99518.06;;;15.34;71.43
77027;BME280;65956;52.986;17.490;2023-05-15T08:42:43;99515.02;;;15.39;71.45
77027;BME280;65956;52.986;17.490;2023-05-15T08:45:11;99516.48;;;15.48;71.57
77027;BME280;65956;52.986;17.490;2023-05-15T08:47:40;99510.62;;;15.51;70.28
77027;BME280;65956;52.986;17.490;2023-05-15T08:50:09;99507.77;;;15.47;69.83
77027;BME280;65956;52.986;17.490;2023-05-15T08:52:44;99504.61;;;15.49;70.08
77027;BME280;65956;52.986;17.490;2023-05-15T08:55:15;99501.88;;;15.49;69.93
77027;BME280;65956;52.986;17.490;2023-05-15T08:57:41;99500.18;;;15.51;69.92
77027;BME280;65956;52.986;17.490;2023-05-15T09:00:09;99501.89;;;15.60;70.30
77027;BME280;65956;52.986;17.490;2023-05-15T09:02:37;99499.28;;;15.67;70.14
77027;BME280;65956;52.986;17.490;2023-05-15T09:05:05;99503.23;;;15.75;70.49
77027;BME280;65956;52.986;17.490;2023-05-15T09:07:32;99498.13;;;15.78;70.27
77027;BME280;65956;52.986;17.490;2023-05-15T09:09:58;99496.98;;;15.74;69.61
77027;BME280;65956;52.986;17.490;2023-05-15T09:12:26;99493.16;;;15.64;69.32
77027;BME280;65956;52.986;17.490;2023-05-15T09:15:18;99488.15;;;15.55;69.71
77027;BME280;65956;52.986;17.490;2023-05-15T09:17:53;99487.84;;;15.43;70.24
77027;BME280;65956;52.986;17.490;2023-05-15T09:20:34;99488.21;;;15.40;71.29
77027;BME280;65956;52.986;17.490;2023-05-15T09:23:02;99486.33;;;15.37;71.45
77027;BME280;65956;52.986;17.490;2023-05-15T09:27:59;99485.28;;;15.23;71.58
77027;BME280;65956;52.986;17.490;2023-05-15T09:30:26;99481.21;;;15.16;72.53
77027;BME280;65956;52.986;17.490;2023-05-15T09:32:53;99482.05;;;15.08;72.48
77027;BME280;65956;52.986;17.490;2023-05-15T09:35:30;99485.80;;;14.97;72.81
77027;BME280;65956;52.986;17.490;2023-05-15T09:38:01;99482.27;;;14.86;73.19
77027;BME280;65956;52.986;17.490;2023-05-15T09:40:28;99484.69;;;14.80;73.70
77027;BME280;65956;52.986;17.490;2023-05-15T09:42:55;99477.05;;;14.75;73.91
77027;BME280;65956;52.986;17.490;2023-05-15T09:45:22;99467.98;;;14.71;74.15
77027;BME280;65956;52.986;17.490;2023-05-15T09:47:50;99469.91;;;14.64;74.37
77027;BME280;65956;52.986;17.490;2023-05-15T09:50:21;99470.13;;;14.53;74.79
77027;BME280;65956;52.986;17.490;2023-05-15T09:52:49;99469.45;;;14.43;74.71
77027;BME280;65956;52.986;17.490;2023-05-15T09:55:16;99467.88;;;14.32;75.54
77027;BME280;65956;52.986;17.490;2023-05-15T09:58:02;99465.03;;;14.21;76.04
77027;BME280;65956;52.986;17.490;2023-05-15T10:00:30;99468.58;;;14.12;76.45
77027;BME280;65956;52.986;17.490;2023-05-15T10:03:17;99466.79;;;14.08;76.78
77027;BME280;65956;52.986;17.490;2023-05-15T10:05:44;99467.26;;;14.01;77.39
77027;BME280;65956;52.986;17.490;2023-05-15T10:08:10;99465.33;;;13.93;77.81
77027;BME280;65956;52.986;17.490;2023-05-15T10:10:37;99466.55;;;13.83;77.50
77027;BME280;65956;52.986;17.490;2023-05-15T10:13:03;99459.42;;;13.76;77.80
77027;BME280;65956;52.986;17.490;2023-05-15T10:15:31;99458.90;;;13.65;78.12
77027;BME280;65956;52.986;17.490;2023-05-15T10:17:58;99459.85;;;13.56;78.43
77027;BME280;65956;52.986;17.490;2023-05-15T10:20:25;99459.11;;;13.47;78.74
77027;BME280;65956;52.986;17.490;2023-05-15T10:22:53;99458.54;;;13.41;79.26
77027;BME280;65956;52.986;17.490;2023-05-15T10:25:35;99456.82;;;13.35;79.40
77027;BME280;65956;52.986;17.490;2023-05-15T10:28:07;99454.28;;;13.33;79.70
77027;BME280;65956;52.986;17.490;2023-05-15T10:30:34;99453.29;;;13.37;79.61
77027;BME280;65956;52.986;17.490;2023-05-15T10:33:05;99450.38;;;13.41;80.00
77027;BME280;65956;52.986;17.490;2023-05-15T10:35:39;99448.34;;;13.45;80.43
77027;BME280;65956;52.986;17.490;2023-05-15T10:38:06;99444.26;;;13.47;80.24
77027;BME280;65956;52.986;17.490;2023-05-15T10:40:36;99443.75;;;13.40;80.65
77027;BME280;65956;52.986;17.490;2023-05-15T10:43:02;99443.65;;;13.33;80.56
77027;BME280;65956;52.986;17.490;2023-05-15T10:45:29;99439.41;;;13.24;80.66
77027;BME280;65956;52.986;17.490;2023-05-15T10:47:56;99439.46;;;13.17;80.71
77027;BME280;65956;52.986;17.490;2023-05-15T10:50:24;99440.92;;;13.13;80.47
77027;BME280;65956;52.986;17.490;2023-05-15T10:52:50;99438.30;;;13.10;81.15
77027;BME280;65956;52.986;17.490;2023-05-15T10:55:21;99441.89;;;13.08;81.35
77027;BME280;65956;52.986;17.490;2023-05-15T10:57:47;99436.06;;;13.09;81.24
77027;BME280;65956;52.986;17.490;2023-05-15T11:02:49;99431.10;;;13.06;81.44
77027;BME280;65956;52.986;17.490;2023-05-15T11:05:18;99424.96;;;13.06;81.87
77027;BME280;65956;52.986;17.490;2023-05-15T11:10:50;99418.89;;;13.05;81.93
77027;BME280;65956;52.986;17.490;2023-05-15T11:13:17;99418.48;;;13.08;82.12
77027;BME280;65956;52.986;17.490;2023-05-15T11:15:44;99413.02;;;13.11;82.19
77027;BME280;65956;52.986;17.490;2023-05-15T11:18:11;99408.38;;;13.15;82.10
77027;BME280;65956;52.986;17.490;2023-05-15T11:20:39;99404.60;;;13.17;82.18
77027;BME280;65956;52.986;17.490;2023-05-15T11:23:06;99401.06;;;13.21;82.43
77027;BME280;65956;52.986;17.490;2023-05-15T11:25:34;99399.30;;;13.23;82.41
77027;BME280;65956;52.986;17.490;2023-05-15T11:28:02;99399.98;;;13.25;82.30
77027;BME280;65956;52.986;17.490;2023-05-15T11:30:36;99394.72;;;13.24;82.34
77027;BME280;65956;52.986;17.490;2023-05-15T11:33:10;99391.35;;;13.25;82.61
77027;BME280;65956;52.986;17.490;2023-05-15T11:35:39;99389.95;;;13.22;82.65
77027;BME280;65956;52.986;17.490;2023-05-15T11:43:25;99385.45;;;13.14;83.09
77027;BME280;65956;52.986;17.490;2023-05-15T11:48:19;99385.44;;;13.15;83.36
77027;BME280;65956;52.986;17.490;2023-05-15T11:50:46;99386.63;;;13.18;83.28
77027;BME280;65956;52.986;17.490;2023-05-15T11:53:13;99379.73;;;13.21;83.19
77027;BME280;65956;52.986;17.490;2023-05-15T11:55:41;99377.14;;;13.23;83.09
77027;BME280;65956;52.986;17.490;2023-05-15T11:58:13;99378.34;;;13.23;83.38
77027;BME280;65956;52.986;17.490;2023-05-15T12:00:40;99371.98;;;13.21;83.36
77027;BME280;65956;52.986;17.490;2023-05-15T12:05:41;99366.89;;;13.26;83.49
77027;BME280;65956;52.986;17.490;2023-05-15T12:08:13;99363.20;;;13.27;83.50
77027;BME280;65956;52.986;17.490;2023-05-15T12:10:43;99364.70;;;13.27;83.39
77027;BME280;65956;52.986;17.490;2023-05-15T12:13:13;99353.84;;;13.28;83.61
77027;BME280;65956;52.986;17.490;2023-05-15T12:15:43;99354.80;;;13.28;83.79
77027;BME280;65956;52.986;17.490;2023-05-15T12:18:11;99353.30;;;13.25;83.89
77027;BME280;65956;52.986;17.490;2023-05-15T12:20:38;99350.23;;;13.20;83.85
77027;BME280;65956;52.986;17.490;2023-05-15T12:23:06;99347.41;;;13.22;83.59
77027;BME280;65956;52.986;17.490;2023-05-15T12:25:34;99347.62;;;13.26;83.88
77027;BME280;65956;52.986;17.490;2023-05-15T12:28:03;99343.84;;;13.27;84.02
77027;BME280;65956;52.986;17.490;2023-05-15T12:30:31;99339.84;;;13.27;84.07
77027;BME280;65956;52.986;17.490;2023-05-15T12:33:05;99338.00;;;13.29;84.00
77027;BME280;65956;52.986;17.490;2023-05-15T12:35:35;99333.41;;;13.32;83.78
77027;BME280;65956;52.986;17.490;2023-05-15T12:38:05;99328.25;;;13.36;83.99
77027;BME280;65956;52.986;17.490;2023-05-15T12:40:35;99326.45;;;13.40;83.76
77027;BME280;65956;52.986;17.490;2023-05-15T12:43:06;99322.35;;;13.42;83.89
77027;BME280;65956;52.986;17.490;2023-05-15T12:45:33;99316.69;;;13.41;83.94
77027;BME280;65956;52.986;17.490;2023-05-15T12:48:01;99313.78;;;13.43;83.81
77027;BME280;65956;52.986;17.490;2023-05-15T12:50:31;99316.55;;;13.47;83.87
77027;BME280;65956;52.986;17.490;2023-05-15T12:53:03;99314.19;;;13.51;83.95
77027;BME280;65956;52.986;17.490;2023-05-15T12:55:32;99309.63;;;13.51;83.67
77027;BME280;65956;52.986;17.490;2023-05-15T12:58:01;99306.69;;;13.49;83.49
77027;BME280;65956;52.986;17.490;2023-05-15T13:00:29;99308.26;;;13.45;83.61
77027;BME280;65956;52.986;17.490;2023-05-15T13:02:57;99301.99;;;13.39;83.53
77027;BME280;65956;52.986;17.490;2023-05-15T13:05:25;99300.69;;;13.34;83.63
77027;BME280;65956;52.986;17.490;2023-05-15T13:07:51;99299.45;;;13.31;84.02
77027;BME280;65956;52.986;17.490;2023-05-15T13:10:22;99293.34;;;13.26;84.26
77027;BME280;65956;52.986;17.490;2023-05-15T13:12:52;99284.74;;;13.22;84.49
77027;BME280;65956;52.986;17.490;2023-05-15T13:15:34;99280.61;;;13.21;84.27
77027;BME280;65956;52.986;17.490;2023-05-15T13:18:14;99276.62;;;13.19;84.66
77027;BME280;65956;52.986;17.490;2023-05-15T13:20:42;99272.77;;;13.21;84.61